Glafkaki — SVA7055 — position and weather

sailwx.info

Track history (hours):
 
Tides and Currents Weather Stations Pressure Air Temp Water Temp Dewpoint Dewpoint Depression Visibility Wind Speed Wind Dir Waves Ship Positions

Glafkaki

Last reported at 2017-Sep-21 08:57 UTC. Time now 2017-Sep-21 09:03 UTC.
Position N 37°28' E 025°20'.

Length 16 m.

Type: Pleasure craft. MMSI: 239965600.

Date/timePositionNaut miles runAvg speedWind from/ knotsBaromVisibWave heightAir tempDewpointWater temp
2017-Sep-21 08:57N 37°28' E 025°20'0 0.0
2017-Sep-21 08:30N 37°28' E 025°20'0 0.0
2017-Sep-21 07:30N 37°28' E 025°20'0 0.0
2017-Sep-21 06:15N 37°28' E 025°20'0 0.0
2017-Sep-21 05:57N 37°28' E 025°20'0 0.0
2017-Sep-21 05:30N 37°28' E 025°20'0 0.0
2017-Sep-21 01:03N 37°28' E 025°20'0 0.0
2017-Sep-21 00:48N 37°28' E 025°20'0 0.0
2017-Sep-21 00:21N 37°28' E 025°20'0 0.0
2017-Sep-20 23:57N 37°28' E 025°20'0 0.0
2017-Sep-20 23:27N 37°28' E 025°20'0 0.0
2017-Sep-20 22:57N 37°28' E 025°20'0 0.0
2017-Sep-20 21:48N 37°28' E 025°20'0 0.0
2017-Sep-20 21:24N 37°28' E 025°20'0 0.0
2017-Sep-20 20:21N 37°28' E 025°20'0 0.0
2017-Sep-20 18:54N 37°28' E 025°20'0 0.0
2017-Sep-20 18:21N 37°28' E 025°20'0 0.0
2017-Sep-20 17:51N 37°28' E 025°20'0 0.0
2017-Sep-20 17:21N 37°28' E 025°20'0 0.0
2017-Sep-20 16:54N 37°28' E 025°20'0 0.0
2017-Sep-20 13:03N 37°28' E 025°20'0 0.0
2017-Sep-20 12:45N 37°28' E 025°20'0 0.0
2017-Sep-20 12:27N 37°28' E 025°20'0 0.0
2017-Sep-19 18:48N 37°28' E 025°20'0 0.0
2017-Sep-19 18:24N 37°28' E 025°20'0 0.0
2017-Sep-19 17:57N 37°28' E 025°20'0 0.0
2017-Sep-19 17:24N 37°28' E 025°20'  
2017-Sep-16 09:18N 37°28' E 025°20'  
2017-Sep-13 16:32N 37°28' E 025°20'0 0.0
2017-Sep-13 16:29N 37°28' E 025°20'3 6.3
2017-Sep-13 15:57N 37°27' E 025°15'1 0.4
2017-Sep-13 12:23N 37°27' E 025°17'2 1.8
2017-Sep-13 11:18N 37°28' E 025°20'0 0.0
2017-Sep-13 10:51N 37°28' E 025°20'0 0.0
2017-Sep-13 07:48N 37°28' E 025°20'0 0.0
2017-Sep-13 07:06N 37°28' E 025°20'0 0.0
2017-Sep-13 06:45N 37°28' E 025°20'0 0.0
2017-Sep-13 06:15N 37°28' E 025°20'0 0.0
2017-Sep-13 05:51N 37°28' E 025°20'0 0.0
2017-Sep-13 05:24N 37°28' E 025°20'0 0.0
2017-Sep-13 04:57N 37°28' E 025°20'0 0.0
2017-Sep-12 17:00N 37°28' E 025°20'0 0.0
2017-Sep-12 15:33N 37°28' E 025°20'0 0.0
2017-Sep-12 15:30N 37°28' E 025°20'0 0.0
2017-Sep-12 10:24N 37°28' E 025°20'0 0.0
2017-Sep-12 09:54N 37°28' E 025°20'0 0.0
2017-Sep-12 09:30N 37°28' E 025°20'0 0.0
2017-Sep-12 08:06N 37°28' E 025°20'0 0.0
2017-Sep-12 08:00N 37°28' E 025°20'0 0.0
2017-Sep-12 07:24N 37°28' E 025°20'0 0.0
2017-Sep-12 07:00N 37°28' E 025°20'0 0.0
2017-Sep-12 06:30N 37°28' E 025°20'0 0.0
2017-Sep-12 01:45N 37°28' E 025°20'0 0.0
2017-Sep-12 01:30N 37°28' E 025°20'0 0.0
2017-Sep-12 01:00N 37°28' E 025°20'0 0.0
2017-Sep-12 00:30N 37°28' E 025°20'0 0.0
2017-Sep-11 22:54N 37°28' E 025°20'0 0.0
2017-Sep-11 22:27N 37°28' E 025°20'0 0.0
2017-Sep-11 21:57N 37°28' E 025°20'0 0.0
2017-Sep-11 21:30N 37°28' E 025°20'0 0.0
2017-Sep-11 20:54N 37°28' E 025°20'0 0.0
2017-Sep-11 20:21N 37°28' E 025°20'0 0.0
2017-Sep-11 19:54N 37°28' E 025°20'0 0.0
2017-Sep-11 19:24N 37°28' E 025°20'0 0.0
2017-Sep-11 19:00N 37°28' E 025°20'0 0.0
2017-Sep-11 18:27N 37°28' E 025°20'0 0.0
2017-Sep-11 18:00N 37°28' E 025°20'0 0.0
2017-Sep-11 16:51N 37°28' E 025°20'0 0.0
2017-Sep-11 16:27N 37°28' E 025°20'0 0.0
2017-Sep-11 16:00N 37°28' E 025°20'1 1.2
2017-Sep-11 15:26N 37°27' E 025°20'3 2.8
2017-Sep-11 14:24N 37°25' E 025°18'3 6.5
2017-Sep-11 14:00N 37°24' E 025°22'2 3.8
2017-Sep-11 13:23N 37°25' E 025°24'0 0.0
2017-Sep-11 12:59N 37°25' E 025°24'0 0.0
2017-Sep-11 12:26N 37°25' E 025°24'1 2.6
2017-Sep-11 11:59N 37°25' E 025°23'3 5.5
2017-Sep-11 11:29N 37°24' E 025°20'2 1.9
2017-Sep-11 10:42N 37°25' E 025°18'3 5.3
2017-Sep-11 10:09N 37°28' E 025°20'0 0.0
2017-Sep-11 09:48N 37°28' E 025°20'0 0.0
2017-Sep-11 09:12N 37°28' E 025°20'  
Track history (hours):
 
Tides and Currents Weather Stations Pressure Air Temp Water Temp Dewpoint Dewpoint Depression Visibility Wind Speed Wind Dir Waves Ship Positions

Glafkaki

Last reported at 2017-Sep-21 08:57 UTC. Time now 2017-Sep-21 09:03 UTC.
Position N 37°28' E 025°20'.

Length 16 m.

Type: Pleasure craft. MMSI: 239965600.

Date/timePositionNaut miles runAvg speedWind from/ knotsBaromVisibWave heightAir tempDewpointWater temp
2017-Sep-21 08:57N 37°28' E 025°20'0 0.0
2017-Sep-21 08:30N 37°28' E 025°20'0 0.0
2017-Sep-21 07:30N 37°28' E 025°20'0 0.0
2017-Sep-21 06:15N 37°28' E 025°20'0 0.0
2017-Sep-21 05:57N 37°28' E 025°20'0 0.0
2017-Sep-21 05:30N 37°28' E 025°20'0 0.0
2017-Sep-21 01:03N 37°28' E 025°20'0 0.0
2017-Sep-21 00:48N 37°28' E 025°20'0 0.0
2017-Sep-21 00:21N 37°28' E 025°20'0 0.0
2017-Sep-20 23:57N 37°28' E 025°20'0 0.0
2017-Sep-20 23:27N 37°28' E 025°20'0 0.0
2017-Sep-20 22:57N 37°28' E 025°20'0 0.0
2017-Sep-20 21:48N 37°28' E 025°20'0 0.0
2017-Sep-20 21:24N 37°28' E 025°20'0 0.0
2017-Sep-20 20:21N 37°28' E 025°20'0 0.0
2017-Sep-20 18:54N 37°28' E 025°20'0 0.0
2017-Sep-20 18:21N 37°28' E 025°20'0 0.0
2017-Sep-20 17:51N 37°28' E 025°20'0 0.0
2017-Sep-20 17:21N 37°28' E 025°20'0 0.0
2017-Sep-20 16:54N 37°28' E 025°20'0 0.0
2017-Sep-20 13:03N 37°28' E 025°20'0 0.0
2017-Sep-20 12:45N 37°28' E 025°20'0 0.0
2017-Sep-20 12:27N 37°28' E 025°20'0 0.0
2017-Sep-19 18:48N 37°28' E 025°20'0 0.0
2017-Sep-19 18:24N 37°28' E 025°20'0 0.0
2017-Sep-19 17:57N 37°28' E 025°20'0 0.0
2017-Sep-19 17:24N 37°28' E 025°20'  
2017-Sep-16 09:18N 37°28' E 025°20'  
2017-Sep-13 16:32N 37°28' E 025°20'0 0.0
2017-Sep-13 16:29N 37°28' E 025°20'3 6.3
2017-Sep-13 15:57N 37°27' E 025°15'1 0.4
2017-Sep-13 12:23N 37°27' E 025°17'2 1.8
2017-Sep-13 11:18N 37°28' E 025°20'0 0.0
2017-Sep-13 10:51N 37°28' E 025°20'0 0.0
2017-Sep-13 07:48N 37°28' E 025°20'0 0.0
2017-Sep-13 07:06N 37°28' E 025°20'0 0.0
2017-Sep-13 06:45N 37°28' E 025°20'0 0.0
2017-Sep-13 06:15N 37°28' E 025°20'0 0.0
2017-Sep-13 05:51N 37°28' E 025°20'0 0.0
2017-Sep-13 05:24N 37°28' E 025°20'0 0.0
2017-Sep-13 04:57N 37°28' E 025°20'0 0.0
2017-Sep-12 17:00N 37°28' E 025°20'0 0.0
2017-Sep-12 15:33N 37°28' E 025°20'0 0.0
2017-Sep-12 15:30N 37°28' E 025°20'0 0.0
2017-Sep-12 10:24N 37°28' E 025°20'0 0.0
2017-Sep-12 09:54N 37°28' E 025°20'0 0.0
2017-Sep-12 09:30N 37°28' E 025°20'0 0.0
2017-Sep-12 08:06N 37°28' E 025°20'0 0.0
2017-Sep-12 08:00N 37°28' E 025°20'0 0.0
2017-Sep-12 07:24N 37°28' E 025°20'0 0.0
2017-Sep-12 07:00N 37°28' E 025°20'0 0.0
2017-Sep-12 06:30N 37°28' E 025°20'0 0.0
2017-Sep-12 01:45N 37°28' E 025°20'0 0.0
2017-Sep-12 01:30N 37°28' E 025°20'0 0.0
2017-Sep-12 01:00N 37°28' E 025°20'0 0.0
2017-Sep-12 00:30N 37°28' E 025°20'0 0.0
2017-Sep-11 22:54N 37°28' E 025°20'0 0.0
2017-Sep-11 22:27N 37°28' E 025°20'0 0.0
2017-Sep-11 21:57N 37°28' E 025°20'0 0.0
2017-Sep-11 21:30N 37°28' E 025°20'0 0.0
2017-Sep-11 20:54N 37°28' E 025°20'0 0.0
2017-Sep-11 20:21N 37°28' E 025°20'0 0.0
2017-Sep-11 19:54N 37°28' E 025°20'0 0.0
2017-Sep-11 19:24N 37°28' E 025°20'0 0.0
2017-Sep-11 19:00N 37°28' E 025°20'0 0.0
2017-Sep-11 18:27N 37°28' E 025°20'0 0.0
2017-Sep-11 18:00N 37°28' E 025°20'0 0.0
2017-Sep-11 16:51N 37°28' E 025°20'0 0.0
2017-Sep-11 16:27N 37°28' E 025°20'0 0.0
2017-Sep-11 16:00N 37°28' E 025°20'1 1.2
2017-Sep-11 15:26N 37°27' E 025°20'3 2.8
2017-Sep-11 14:24N 37°25' E 025°18'3 6.5
2017-Sep-11 14:00N 37°24' E 025°22'2 3.8
2017-Sep-11 13:23N 37°25' E 025°24'0 0.0
2017-Sep-11 12:59N 37°25' E 025°24'0 0.0
2017-Sep-11 12:26N 37°25' E 025°24'1 2.6
2017-Sep-11 11:59N 37°25' E 025°23'3 5.5
2017-Sep-11 11:29N 37°24' E 025°20'2 1.9
2017-Sep-11 10:42N 37°25' E 025°18'3 5.3
2017-Sep-11 10:09N 37°28' E 025°20'0 0.0
2017-Sep-11 09:48N 37°28' E 025°20'0 0.0
2017-Sep-11 09:12N 37°28' E 025°20'  

Dump ship's entire track history